South Teddington, United Kingdom
Current Conditions -  °F | °C
As of 9:50 AM on Wednesday 26 Nov 2014 (Local Time) from EGLL Reporting Station
Haze Haze  
Wind Chill: 48°   Ceiling: 800
Heat Index: 48°   Visibility: 0.93mi
Dew Point: 46°   Wind: 3mph
Humidity: 93%   Direction: 70°ENE
Pressure: 29.88"   Gusts: NA
Location:  51.43°N, 0.45°W
Report Text: EGLL 260950Z 07003KT 1500 BR FEW002 SCT003 BKN008 09/08 Q1012 TEMPO BKN004
Loading
Personal Weather Stations






























Interactive Weather Map New forecast layout! Learn more

10-Day Weather Forecast

Advertisements
Track Severe Weather on mobile